Time;durP1;ratioP1;P1;durP2;ratioP2;P2;SDS_P1;SDS_P2;PMS_P1;PMS_P2;Temp;Humidity;BMP_temperature;BMP_pressure;BME280_temperature;BME280_humidity;BME280_pressure;Samples;Min_cycle;Max_cycle;Signal;HPM_P1;HPM_P2
2022/09/04 00:01:36;;;;;;;9.90;5.70;;;20.10;99.90;;;;;;5110316;28;20392;-76
2022/09/04 00:04:33;;;;;;;14.00;5.72;;;20.10;99.90;;;;;;5118022;28;20032;-77
2022/09/04 00:07:21;;;;;;;11.48;5.85;;;20.10;99.90;;;;;;5117588;28;20020;-77
2022/09/04 00:09:56;;;;;;;11.70;5.93;;;20.10;99.90;;;;;;5116765;28;20024;-76
2022/09/04 00:12:33;;;;;;;14.32;5.90;;;20.00;99.90;;;;;;5117865;28;20019;-76
2022/09/04 00:15:12;;;;;;;15.13;5.15;;;20.00;99.90;;;;;;5117350;28;20068;-76
2022/09/04 00:17:49;;;;;;;13.02;6.32;;;19.90;99.90;;;;;;5117370;28;20544;-76
2022/09/04 00:20:41;;;;;;;11.82;6.75;;;19.90;99.90;;;;;;5115149;28;20031;-76
2022/09/04 00:23:50;;;;;;;12.00;5.47;;;19.80;99.90;;;;;;5113797;28;20024;-76
2022/09/04 00:26:48;;;;;;;14.35;6.75;;;19.80;99.90;;;;;;5104667;28;20429;-77
2022/09/04 00:29:33;;;;;;;12.98;6.05;;;19.80;99.90;;;;;;5112416;28;20118;-76
2022/09/04 00:32:12;;;;;;;13.43;6.25;;;19.80;99.90;;;;;;5104026;28;20388;-76
2022/09/04 00:34:54;;;;;;;15.98;6.65;;;19.80;99.90;;;;;;5113291;28;20077;-76
2022/09/04 00:37:23;;;;;;;11.50;6.53;;;19.80;99.90;;;;;;5116139;28;20019;-76
2022/09/04 00:39:57;;;;;;;13.52;6.55;;;19.80;99.90;;;;;;5105207;28;20091;-76
2022/09/04 00:43:05;;;;;;;13.93;7.53;;;19.70;99.90;;;;;;5115899;28;20440;-76
2022/09/04 00:45:34;;;;;;;10.75;6.57;;;19.70;99.90;;;;;;5107646;28;20031;-76
2022/09/04 00:48:15;;;;;;;18.05;7.65;;;19.70;99.90;;;;;;5116098;28;20551;-76
2022/09/04 00:51:14;;;;;;;12.73;7.57;;;19.70;99.90;;;;;;5117060;28;20388;-76
2022/09/04 00:54:03;;;;;;;22.77;7.95;;;19.70;99.90;;;;;;5116452;28;20085;-77
2022/09/04 00:56:35;;;;;;;13.82;7.28;;;19.70;99.90;;;;;;5116235;28;20106;-77
2022/09/04 00:59:05;;;;;;;18.08;7.75;;;19.70;99.90;;;;;;5115974;28;20039;-76
2022/09/04 01:01:34;;;;;;;16.50;7.63;;;19.70;99.90;;;;;;5115434;28;20038;-77
2022/09/04 01:04:16;;;;;;;18.73;8.48;;;19.80;99.90;;;;;;5108770;28;20036;-76
2022/09/04 01:07:31;;;;;;;24.70;8.93;;;19.80;99.90;;;;;;5117414;28;20373;-76
2022/09/04 01:10:39;;;;;;;16.85;8.13;;;19.80;99.90;;;;;;5115763;28;20023;-76
2022/09/04 01:13:19;;;;;;;15.07;8.38;;;19.80;99.90;;;;;;5121356;28;20038;-76
2022/09/04 01:16:00;;;;;;;14.73;7.10;;;19.70;99.90;;;;;;5120864;28;20038;-77
2022/09/04 01:18:38;;;;;;;20.60;8.90;;;19.70;99.90;;;;;;5119997;28;20024;-77
2022/09/04 01:21:43;;;;;;;18.58;8.90;;;19.80;99.90;;;;;;5119843;28;20123;-76
2022/09/04 01:24:31;;;;;;;12.93;7.20;;;19.80;99.90;;;;;;5119928;28;20387;-77
2022/09/04 01:27:18;;;;;;;17.95;7.75;;;19.80;99.90;;;;;;5120508;28;20051;-77
2022/09/04 01:29:56;;;;;;;23.70;9.45;;;19.80;99.90;;;;;;5115959;28;20020;-76
2022/09/04 01:32:38;;;;;;;20.67;8.50;;;19.80;99.90;;;;;;5119351;28;20015;-76
2022/09/04 01:35:14;;;;;;;16.73;8.73;;;19.80;99.90;;;;;;5119957;28;20059;-77
2022/09/04 01:38:04;;;;;;;11.65;8.00;;;19.70;99.90;;;;;;5113353;27;20555;-76
2022/09/04 01:41:07;;;;;;;18.17;9.10;;;19.70;99.90;;;;;;5117654;28;20024;-76
2022/09/04 01:43:33;;;;;;;16.63;8.98;;;19.70;99.90;;;;;;5109377;28;20039;-77
2022/09/04 01:46:08;;;;;;;21.52;9.88;;;19.70;99.90;;;;;;5119804;28;20027;-77
2022/09/04 01:49:10;;;;;;;18.15;9.80;;;19.60;99.90;;;;;;5109091;28;20399;-77
2022/09/04 01:51:38;;;;;;;22.30;9.95;;;19.70;99.90;;;;;;5111813;28;20119;-77
2022/09/04 01:54:30;;;;;;;21.38;10.98;;;19.70;99.90;;;;;;5113219;28;20031;-77
2022/09/04 01:57:30;;;;;;;22.65;11.45;;;19.70;99.90;;;;;;5119101;28;20029;-77
2022/09/04 02:00:01;;;;;;;;;;;19.70;99.90;;;;;;5108614;28;20040;-76
2022/09/04 02:03:06;;;;;;;15.15;10.13;;;19.70;99.90;;;;;;5119247;28;19953;-76
2022/09/04 02:05:56;;;;;;;22.65;10.98;;;19.70;99.90;;;;;;5120323;28;20036;-76
2022/09/04 02:08:34;;;;;;;25.13;12.10;;;19.60;99.90;;;;;;5118897;28;20023;-76
2022/09/04 02:11:02;;;;;;;21.13;12.32;;;19.60;99.90;;;;;;5120293;28;20102;-76
2022/09/04 02:13:39;;;;;;;20.02;12.30;;;19.60;99.90;;;;;;5119959;28;20020;-76
2022/09/04 02:16:13;;;;;;;26.23;13.00;;;19.60;99.90;;;;;;5116663;28;20500;-77
2022/09/04 02:19:00;;;;;;;22.77;13.20;;;19.60;99.90;;;;;;5120002;28;20030;-77
2022/09/04 02:21:36;;;;;;;19.95;12.90;;;19.60;99.90;;;;;;5119945;28;20576;-77
2022/09/04 02:24:22;;;;;;;24.60;14.18;;;19.60;99.90;;;;;;5117699;28;20023;-76
2022/09/04 02:27:12;;;;;;;24.13;14.00;;;19.60;99.90;;;;;;5116999;28;20028;-77
2022/09/04 02:30:04;;;;;;;26.10;13.95;;;19.60;99.90;;;;;;5113358;28;20024;-78
2022/09/04 02:33:05;;;;;;;25.85;15.05;;;19.50;99.90;;;;;;5103737;28;20032;-77
2022/09/04 02:35:49;;;;;;;23.38;14.13;;;19.50;99.90;;;;;;5119796;28;20016;-77
2022/09/04 02:38:32;;;;;;;24.42;14.52;;;19.50;99.90;;;;;;5116318;28;20019;-76
2022/09/04 02:41:39;;;;;;;33.45;15.15;;;19.50;99.90;;;;;;5117018;28;20041;-76
2022/09/04 02:44:38;;;;;;;25.73;13.95;;;19.50;99.90;;;;;;5119726;28;20031;-76
2022/09/04 02:47:21;;;;;;;26.77;14.48;;;19.40;99.90;;;;;;5108975;28;20049;-76
2022/09/04 02:50:02;;;;;;;27.45;15.45;;;19.40;99.90;;;;;;5119550;28;20028;-76
2022/09/04 02:52:58;;;;;;;18.00;13.63;;;19.40;99.90;;;;;;5119487;28;20015;-76
2022/09/04 02:55:33;;;;;;;21.25;15.25;;;19.40;99.90;;;;;;5111200;28;20454;-76
2022/09/04 02:58:18;;;;;;;27.13;15.02;;;19.40;99.90;;;;;;5119202;28;20095;-76
2022/09/04 03:01:21;;;;;;;29.10;14.85;;;19.40;99.90;;;;;;5118716;28;20408;-76
2022/09/04 03:04:02;;;;;;;20.95;13.88;;;19.40;99.90;;;;;;5113918;28;20050;-77
2022/09/04 03:06:31;;;;;;;25.67;13.25;;;19.40;99.90;;;;;;5118129;28;20022;-76
2022/09/04 03:09:13;;;;;;;24.27;14.03;;;19.40;99.90;;;;;;5106389;28;20024;-76
2022/09/04 03:11:47;;;;;;;18.98;12.50;;;19.40;99.90;;;;;;5106385;28;20258;-77
2022/09/04 03:14:33;;;;;;;24.23;12.68;;;19.40;99.90;;;;;;5118787;28;20382;-76
2022/09/04 03:17:18;;;;;;;28.17;13.13;;;19.30;99.90;;;;;;5114262;28;20016;-76
2022/09/04 03:19:56;;;;;;;33.20;13.63;;;19.40;99.90;;;;;;5106357;28;20081;-76
2022/09/04 03:22:30;;;;;;;23.40;13.23;;;19.30;99.90;;;;;;5117178;28;20032;-76
2022/09/04 03:25:25;;;;;;;28.90;13.02;;;19.30;99.90;;;;;;5112523;28;20500;-76
2022/09/04 03:27:51;;;;;;;25.67;14.23;;;19.20;99.90;;;;;;5118622;28;20411;-76
2022/09/04 03:30:17;;;;;;;23.27;12.32;;;19.20;99.90;;;;;;5118100;28;20106;-77
2022/09/04 03:33:03;;;;;;;28.52;14.43;;;19.20;99.90;;;;;;5117166;28;20044;-76
2022/09/04 03:35:34;;;;;;;29.15;14.27;;;19.20;99.90;;;;;;5109126;28;20012;-77
2022/09/04 03:38:27;;;;;;;25.15;13.45;;;19.20;99.90;;;;;;5118445;28;20046;-76
2022/09/04 03:41:44;;;;;;;19.58;12.93;;;19.20;99.90;;;;;;5118401;28;20062;-76
2022/09/04 03:44:41;;;;;;;21.15;12.68;;;19.20;99.90;;;;;;5094734;28;20042;-76
2022/09/04 03:47:15;;;;;;;20.15;11.65;;;19.20;99.90;;;;;;5116677;28;20038;-76
2022/09/04 03:49:57;;;;;;;21.70;11.27;;;19.20;99.90;;;;;;5118585;28;20020;-76
2022/09/04 03:52:44;;;;;;;20.83;12.18;;;19.20;99.90;;;;;;5116134;28;20154;-76
2022/09/04 03:55:40;;;;;;;21.95;11.68;;;19.20;99.90;;;;;;5118265;28;20022;-76
2022/09/04 03:58:31;;;;;;;21.85;12.02;;;19.20;99.90;;;;;;5104196;28;20023;-76
2022/09/04 04:01:13;;;;;;;23.30;11.55;;;19.20;99.90;;;;;;5116239;28;20161;-76
2022/09/04 04:04:00;;;;;;;20.20;11.35;;;19.20;99.90;;;;;;5116643;28;20028;-76
2022/09/04 04:06:57;;;;;;;24.90;10.98;;;19.20;99.90;;;;;;5117667;28;20012;-76
2022/09/04 04:09:26;;;;;;;22.90;11.65;;;19.10;99.90;;;;;;5117734;28;20028;-76
2022/09/04 04:12:01;;;;;;;19.33;10.15;;;19.10;99.90;;;;;;5117910;28;20486;-76
2022/09/04 04:14:45;;;;;;;19.13;11.20;;;19.10;99.90;;;;;;5116449;28;20088;-76
2022/09/04 04:17:34;;;;;;;20.00;10.35;;;19.10;99.90;;;;;;5112542;28;20024;-76
2022/09/04 04:20:11;;;;;;;22.00;11.50;;;19.10;99.90;;;;;;5092246;28;20036;-76
2022/09/04 04:23:04;;;;;;;16.80;10.48;;;19.10;99.90;;;;;;5118092;28;20096;-76
2022/09/04 04:25:38;;;;;;;19.58;10.13;;;19.20;99.90;;;;;;5116851;28;20505;-76
2022/09/04 04:28:11;;;;;;;16.02;10.95;;;19.20;99.90;;;;;;5115980;28;20056;-76
2022/09/04 04:30:51;;;;;;;20.15;10.07;;;19.30;99.90;;;;;;5117754;28;20019;-76
2022/09/04 04:33:55;;;;;;;15.70;10.35;;;19.30;99.90;;;;;;5116236;28;20039;-76
2022/09/04 04:36:29;;;;;;;21.73;9.88;;;19.20;99.90;;;;;;5117718;28;20027;-76
2022/09/04 04:38:55;;;;;;;24.90;10.38;;;19.20;99.90;;;;;;5106986;28;20034;-76
2022/09/04 04:42:06;;;;;;;16.20;10.40;;;19.20;99.90;;;;;;5117448;28;20032;-74
2022/09/04 04:47:58;;;;;;;19.50;10.45;;;19.20;99.90;;;;;;5118615;28;20036;-73
2022/09/04 04:50:26;;;;;;;;;;;19.20;99.90;;;;;;5123723;28;20026;-76
2022/09/04 04:53:04;;;;;;;25.33;10.95;;;19.20;99.90;;;;;;5122894;28;19911;-76
2022/09/04 04:56:12;;;;;;;15.23;10.57;;;19.30;99.90;;;;;;5123034;28;20043;-76
2022/09/04 04:59:06;;;;;;;19.88;10.07;;;19.40;99.90;;;;;;5124311;27;20020;-76
2022/09/04 05:01:41;;;;;;;29.17;10.40;;;19.50;99.90;;;;;;5122587;28;20040;-78
2022/09/04 05:04:35;;;;;;;30.50;11.90;;;19.60;99.90;;;;;;5124043;27;20019;-77
2022/09/04 05:07:26;;;;;;;22.50;9.82;;;19.60;99.90;;;;;;5124116;27;20031;-77
2022/09/04 05:10:09;;;;;;;20.17;10.57;;;19.70;99.90;;;;;;5114332;28;20015;-76
2022/09/04 05:13:09;;;;;;;23.35;10.48;;;19.70;99.90;;;;;;5124118;27;20028;-74
2022/09/04 05:15:44;;;;;;;14.43;9.57;;;19.70;99.90;;;;;;5118025;28;20051;-76
2022/09/04 05:18:21;;;;;;;21.65;11.13;;;19.70;99.90;;;;;;5132893;27;20107;-76
2022/09/04 05:21:17;;;;;;;19.00;10.32;;;19.70;99.90;;;;;;5122580;28;20487;-76
2022/09/04 05:24:13;;;;;;;24.38;9.27;;;19.60;99.90;;;;;;5117976;27;20030;-76
2022/09/04 05:26:56;;;;;;;22.83;9.77;;;19.60;99.90;;;;;;5118522;28;20081;-77
2022/09/04 05:29:50;;;;;;;20.98;10.43;;;19.60;99.90;;;;;;5120565;28;20036;-76
2022/09/04 05:32:32;;;;;;;20.33;10.07;;;19.60;99.90;;;;;;5116235;27;20467;-75
2022/09/04 05:35:07;;;;;;;22.00;9.45;;;19.60;99.90;;;;;;5122772;28;20020;-76
2022/09/04 05:37:45;;;;;;;15.63;9.30;;;19.70;99.90;;;;;;5121565;28;20024;-76
2022/09/04 05:40:26;;;;;;;20.00;9.38;;;19.80;99.90;;;;;;5118735;28;20035;-76
2022/09/04 05:43:15;;;;;;;19.88;9.38;;;19.80;99.90;;;;;;5123699;27;20020;-77
2022/09/04 05:45:53;;;;;;;18.85;9.63;;;19.90;99.90;;;;;;5115318;28;20126;-76
2022/09/04 05:48:41;;;;;;;16.98;8.70;;;20.00;99.90;;;;;;5122358;28;20038;-76
2022/09/04 05:51:39;;;;;;;20.38;8.05;;;20.00;99.90;;;;;;5122006;28;20023;-76
2022/09/04 05:54:08;;;;;;;18.20;8.73;;;20.10;99.90;;;;;;5120003;28;20048;-75
2022/09/04 05:57:03;;;;;;;18.95;8.25;;;20.20;99.90;;;;;;5121718;28;20047;-76
2022/09/04 06:00:03;;;;;;;21.60;7.80;;;20.20;99.90;;;;;;5105553;27;20042;-76
2022/09/04 06:02:31;;;;;;;19.52;7.88;;;20.30;99.90;;;;;;5099411;27;20031;-76
2022/09/04 06:05:27;;;;;;;13.70;6.88;;;20.40;99.90;;;;;;5120400;28;20028;-76
2022/09/04 06:08:02;;;;;;;27.45;9.18;;;20.50;99.90;;;;;;5107564;28;20031;-76
2022/09/04 06:10:46;;;;;;;17.23;7.65;;;20.50;99.90;;;;;;5109885;28;20028;-77
2022/09/04 06:13:21;;;;;;;19.23;7.28;;;20.50;99.90;;;;;;5112516;28;20426;-76
2022/09/04 06:16:32;;;;;;;16.63;6.88;;;20.60;99.90;;;;;;5118657;28;20023;-77
2022/09/04 06:19:14;;;;;;;20.98;6.28;;;20.70;99.90;;;;;;5111034;28;20027;-77
2022/09/04 06:22:01;;;;;;;13.27;7.40;;;20.80;99.90;;;;;;5114202;28;20023;-76
2022/09/04 06:25:16;;;;;;;21.55;7.38;;;20.90;99.90;;;;;;5119725;28;20058;-77
2022/09/04 06:28:03;;;;;;;16.00;7.32;;;21.00;99.90;;;;;;5119554;28;20415;-77
2022/09/04 06:31:03;;;;;;;13.65;6.53;;;21.10;99.90;;;;;;5119619;28;20011;-78
2022/09/04 06:33:37;;;;;;;23.53;6.93;;;21.20;99.90;;;;;;5118389;28;20016;-77
2022/09/04 06:36:32;;;;;;;17.15;6.40;;;21.20;99.90;;;;;;5098602;28;20349;-77
2022/09/04 06:39:37;;;;;;;;;;;;;;;;;;;;;
2022/09/04 06:42:32;;;;;;;17.42;6.20;;;21.40;99.90;;;;;;5120162;28;20114;-77
2022/09/04 06:45:04;;;;;;;20.48;7.85;;;21.40;99.90;;;;;;5117867;28;20019;-76
2022/09/04 06:47:37;;;;;;;15.40;6.95;;;21.50;99.90;;;;;;5113480;28;20029;-77
2022/09/04 06:50:21;;;;;;;19.60;6.78;;;21.50;99.90;;;;;;5119513;28;20020;-76
2022/09/04 06:53:05;;;;;;;21.85;6.18;;;21.60;99.90;;;;;;5111427;28;20027;-78
2022/09/04 06:55:47;;;;;;;;;;;;;;;;;;;;;
2022/09/04 06:58:56;;;;;;;12.00;5.38;;;21.70;99.90;;;;;;5119475;28;20107;-79
2022/09/04 07:01:30;;;;;;;12.60;5.70;;;21.80;99.90;;;;;;5110259;28;20022;-78
2022/09/04 07:04:27;;;;;;;12.65;5.70;;;21.90;99.90;;;;;;5117730;28;20031;-77
2022/09/04 07:07:16;;;;;;;15.90;6.10;;;22.00;99.90;;;;;;5115453;28;20028;-77
2022/09/04 07:09:58;;;;;;;10.77;5.05;;;22.00;99.90;;;;;;5117439;28;20020;-77
2022/09/04 07:12:45;;;;;;;10.93;5.40;;;22.10;99.90;;;;;;5117767;28;20043;-78
2022/09/04 07:15:45;;;;;;;17.33;6.07;;;22.30;99.90;;;;;;5117599;28;20387;-78
2022/09/04 07:18:49;;;;;;;12.82;5.30;;;22.40;99.90;;;;;;5110876;28;20373;-77
2022/09/04 07:21:38;;;;;;;13.98;5.40;;;22.50;99.90;;;;;;5108999;28;20055;-78
2022/09/04 07:24:20;;;;;;;13.70;5.32;;;22.60;99.90;;;;;;5094967;28;20032;-78
2022/09/04 07:27:09;;;;;;;11.73;4.63;;;22.70;99.90;;;;;;5116604;28;20035;-77
2022/09/04 07:29:59;;;;;;;15.97;5.10;;;22.80;99.90;;;;;;5106243;28;20048;-77
2022/09/04 07:32:52;;;;;;;16.40;5.88;;;22.90;99.90;;;;;;5108194;28;20429;-76
2022/09/04 07:35:35;;;;;;;12.10;4.65;;;23.00;99.90;;;;;;5108580;28;20072;-76
2022/09/04 07:38:45;;;;;;;25.70;5.18;;;23.10;99.90;;;;;;5117363;28;20024;-78
2022/09/04 07:41:30;;;;;;;10.80;4.05;;;23.30;99.90;;;;;;5114706;28;20032;-77
2022/09/04 07:44:22;;;;;;;10.43;4.45;;;23.40;99.90;;;;;;5110000;28;20049;-77
2022/09/04 07:46:56;;;;;;;10.60;4.38;;;23.50;99.90;;;;;;5104556;28;20546;-77
2022/09/04 07:49:48;;;;;;;12.18;4.38;;;23.60;99.90;;;;;;5117934;28;20030;-76
2022/09/04 07:52:25;;;;;;;10.48;4.45;;;23.70;99.90;;;;;;5072966;28;20084;-77
2022/09/04 07:55:21;;;;;;;14.80;4.15;;;23.80;99.90;;;;;;5118175;28;20024;-77
2022/09/04 07:58:30;;;;;;;14.07;4.78;;;23.90;99.90;;;;;;5118349;28;20023;-76
2022/09/04 08:01:41;;;;;;;12.45;4.38;;;23.90;99.90;;;;;;5114531;28;20062;-77
2022/09/04 08:04:36;;;;;;;10.18;4.20;;;24.10;99.90;;;;;;5116204;28;20032;-77
2022/09/04 08:07:11;;;;;;;12.43;4.53;;;24.20;99.90;;;;;;5117694;28;20015;-76
2022/09/04 08:10:02;;;;;;;10.90;3.75;;;24.20;99.90;;;;;;5117749;28;20103;-77
2022/09/04 08:12:36;;;;;;;;;;;24.20;99.90;;;;;;5104360;28;20495;-76
2022/09/04 08:15:29;;;;;;;14.07;4.22;;;24.30;99.90;;;;;;5117478;28;19903;-77
2022/09/04 08:18:20;;;;;;;11.60;3.80;;;24.40;99.90;;;;;;5116650;28;20425;-77
2022/09/04 08:21:26;;;;;;;13.02;4.78;;;24.40;99.90;;;;;;5126368;27;20024;-78
2022/09/04 08:24:24;;;;;;;12.15;3.97;;;24.40;99.90;;;;;;5102978;28;20049;-78
2022/09/04 08:27:13;;;;;;;7.68;4.03;;;24.40;99.90;;;;;;5115065;28;20042;-77
2022/09/04 08:29:54;;;;;;;8.15;3.63;;;24.60;99.90;;;;;;5110322;28;20027;-77
2022/09/04 08:32:57;;;;;;;18.35;4.38;;;24.70;99.90;;;;;;5114180;28;20060;-76
2022/09/04 08:35:48;;;;;;;13.10;4.88;;;24.80;99.90;;;;;;5104151;28;20387;-78
2022/09/04 08:38:27;;;;;;;11.73;3.42;;;24.90;99.90;;;;;;5118409;27;20055;-78
2022/09/04 08:41:31;;;;;;;10.60;4.00;;;24.90;99.90;;;;;;5117512;28;20020;-77
2022/09/04 08:44:35;;;;;;;11.50;3.67;;;24.90;99.90;;;;;;5110558;28;20036;-77
2022/09/04 08:47:34;;;;;;;16.63;4.38;;;25.10;99.90;;;;;;5101597;28;20036;-78
2022/09/04 08:50:26;;;;;;;16.25;4.00;;;25.20;99.90;;;;;;5104171;28;20023;-77
2022/09/04 08:53:15;;;;;;;12.88;3.97;;;25.40;99.90;;;;;;5117599;28;20024;-77
2022/09/04 08:56:10;;;;;;;20.63;4.55;;;25.50;99.90;;;;;;5117429;28;20012;-77
2022/09/04 08:58:44;;;;;;;10.25;3.45;;;25.60;99.90;;;;;;5099815;28;20031;-78
2022/09/04 09:02:02;;;;;;;13.32;4.40;;;25.60;99.90;;;;;;5116369;28;20103;-76
2022/09/04 09:04:46;;;;;;;12.27;4.57;;;25.60;99.90;;;;;;5054420;28;20078;-77
2022/09/04 09:07:44;;;;;;;13.85;4.35;;;25.60;99.90;;;;;;5126598;28;20020;-78
2022/09/04 09:10:37;;;;;;;12.70;4.03;;;25.70;99.90;;;;;;5117430;28;20563;-77
2022/09/04 09:13:28;;;;;;;;;;;;;;;;;;;;;
2022/09/04 09:16:21;;;;;;;9.75;3.58;;;25.80;99.90;;;;;;5117089;28;20098;-78
2022/09/04 09:19:17;;;;;;;15.00;3.60;;;25.90;99.90;;;;;;5115009;28;20902;-79
2022/09/04 09:22:02;;;;;;;11.35;3.38;;;26.00;99.90;;;;;;5115910;28;20031;-77
2022/09/04 09:25:06;;;;;;;14.70;3.72;;;26.10;99.90;;;;;;5114914;28;20016;-78
2022/09/04 09:28:08;;;;;;;11.10;3.58;;;26.20;99.90;;;;;;5115469;28;20047;-77
2022/09/04 09:31:01;;;;;;;12.10;3.97;;;26.30;99.90;;;;;;5111793;28;20026;-77
2022/09/04 09:34:05;;;;;;;19.23;3.80;;;26.40;99.90;;;;;;5118704;28;20023;-77
2022/09/04 09:37:27;;;;;;;13.45;4.40;;;26.50;99.90;;;;;;5120684;28;20407;-78
2022/09/04 09:40:14;;;;;;;11.88;3.58;;;26.60;99.90;;;;;;5034563;28;20115;-77
2022/09/04 09:42:48;;;;;;;9.48;3.33;;;26.60;99.90;;;;;;5051827;28;20493;-78
2022/09/04 09:45:42;;;;;;;7.32;3.55;;;26.60;99.90;;;;;;5099188;28;20036;-78
2022/09/04 09:48:55;;;;;;;18.52;4.63;;;26.70;99.90;;;;;;5118945;28;20027;-79
2022/09/04 09:51:54;;;;;;;11.52;3.60;;;26.70;99.90;;;;;;5043606;28;20023;-77
2022/09/04 09:55:04;;;;;;;;;;;;;;;;;;;;;
2022/09/04 09:58:21;;;;;;;;;;;;;;;;;;;;;
2022/09/04 10:01:18;;;;;;;13.50;2.97;;;26.80;99.90;;;;;;5103028;28;20414;-77
2022/09/04 10:04:20;;;;;;;14.15;3.15;;;26.90;99.90;;;;;;5120358;28;20503;-76
2022/09/04 10:07:05;;;;;;;16.20;3.78;;;26.90;99.90;;;;;;5111512;28;20023;-78
2022/09/04 10:10:12;;;;;;;12.75;3.72;;;27.00;99.90;;;;;;5120292;28;20142;-77
2022/09/04 10:13:25;;;;;;;15.27;4.47;;;27.00;99.90;;;;;;5119045;28;20111;-78
2022/09/04 10:16:07;;;;;;;9.45;3.00;;;27.00;99.90;;;;;;5119820;28;20023;-77
2022/09/04 10:19:06;;;;;;;10.50;3.40;;;27.20;99.90;;;;;;5114964;28;20487;-77
2022/09/04 10:22:07;;;;;;;9.57;3.05;;;27.30;99.90;;;;;;5115590;28;20039;-77
2022/09/04 10:24:55;;;;;;;11.32;3.35;;;27.40;99.90;;;;;;5115003;28;20027;-79
2022/09/04 10:28:11;;;;;;;8.75;2.85;;;27.40;99.90;;;;;;5119757;28;20046;-78
2022/09/04 10:30:59;;;;;;;11.55;3.40;;;27.40;99.90;;;;;;5106298;28;20042;-78
2022/09/04 10:33:58;;;;;;;9.57;3.10;;;27.40;99.90;;;;;;5117679;28;20027;-79
2022/09/04 10:36:43;;;;;;;9.52;3.45;;;27.50;99.90;;;;;;5108223;28;20031;-79
2022/09/04 10:42:51;;;;;;;;;;;;;;;;;;;;;
2022/09/04 10:45:50;;;;;;;10.52;3.20;;;27.70;99.90;;;;;;5115010;28;20126;-78
2022/09/04 10:48:54;;;;;;;;;;;;;;;;;;;;;
2022/09/04 10:52:16;;;;;;;9.35;3.25;;;28.00;99.90;;;;;;5118345;28;20118;-77
2022/09/04 10:55:12;;;;;;;10.18;3.50;;;28.10;99.90;;;;;;5114587;28;20114;-78
2022/09/04 10:58:14;;;;;;;8.98;3.03;;;28.10;99.90;;;;;;5116791;28;20024;-77
2022/09/04 11:01:02;;;;;;;9.85;2.80;;;28.10;99.90;;;;;;5118940;28;20042;-77
2022/09/04 11:06:36;;;;;;;8.63;2.30;;;28.30;99.90;;;;;;5107382;28;20071;-78
2022/09/04 11:09:42;;;;;;;14.88;3.40;;;28.30;99.90;;;;;;5117844;28;20019;-77
2022/09/04 11:12:50;;;;;;;;;;;;;;;;;;;;;
2022/09/04 11:15:51;;;;;;;7.97;3.22;;;28.40;99.90;;;;;;5114940;28;20053;-78
2022/09/04 11:18:23;;;;;;;;;;;28.40;99.90;;;;;;5111946;28;20030;-78
2022/09/04 11:21:41;;;;;;;;;;;;;;;;;;;;;
2022/09/04 11:27:57;;;;;;;13.60;2.88;;;28.60;99.90;;;;;;5095475;28;20063;-78
2022/09/04 11:30:52;;;;;;;8.23;3.08;;;28.60;99.90;;;;;;5108363;28;20012;-77
2022/09/04 11:38:05;;;;;;;16.02;3.53;;;28.80;99.90;;;;;;5043829;28;20106;-79
2022/09/04 11:41:10;;;;;;;;;;;;;;;;;;;;;
2022/09/04 11:44:05;;;;;;;9.75;2.85;;;29.00;99.90;;;;;;5113773;28;20448;-79
2022/09/04 11:47:22;;;;;;;9.80;2.85;;;28.90;99.90;;;;;;5111249;28;20047;-78
2022/09/04 11:50:45;;;;;;;;;;;;;;;;;;;;;
2022/09/04 11:53:38;;;;;;;7.75;2.83;;;28.80;99.90;;;;;;5096896;28;20115;-78
2022/09/04 11:56:49;;;;;;;;;;;;;;;;;;;;;
2022/09/04 11:59:30;;;;;;;;;;;;;;;;;;;;;
2022/09/04 12:02:36;;;;;;;7.22;2.53;;;29.10;99.90;;;;;;5117876;28;19990;-79
2022/09/04 12:05:38;;;;;;;9.07;2.50;;;29.10;99.90;;;;;;5117215;28;20031;-78
2022/09/04 12:12:55;;;;;;;;;;;;;;;;;;;;;
2022/09/04 12:15:43;;;;;;;10.25;2.38;;;29.20;99.90;;;;;;5114192;28;20142;-78
2022/09/04 12:18:54;;;;;;;13.38;2.65;;;29.20;99.90;;;;;;5116477;28;20027;-77
2022/09/04 12:25:01;;;;;;;7.97;3.03;;;29.20;99.90;;;;;;5102597;28;20020;-80
2022/09/04 12:28:33;;;;;;;;;;;;;;;;;;;;;
2022/09/04 12:35:05;;;;;;;8.32;3.05;;;29.80;99.90;;;;;;5113207;28;20452;-78
2022/09/04 12:38:49;;;;;;;8.50;2.45;;;29.90;99.90;;;;;;5116565;28;20031;-78
2022/09/04 12:42:00;;;;;;;;;;;;;;;;;;;;;
2022/09/04 12:44:50;;;;;;;6.00;2.15;;;30.10;99.90;;;;;;5110223;28;20126;-79
2022/09/04 12:54:23;;;;;;;7.90;2.28;;;30.20;99.90;;;;;;5110222;28;20434;-79
2022/09/04 12:57:15;;;;;;;;;;;;;;;;;;;;;
2022/09/04 13:03:16;;;;;;;7.32;2.40;;;30.70;99.90;;;;;;5106264;28;20427;-77
2022/09/04 13:06:10;;;;;;;7.13;2.45;;;30.90;98.80;;;;;;5117453;28;20459;-79
2022/09/04 13:12:22;;;;;;;;;;;;;;;;;;;;;
2022/09/04 13:18:16;;;;;;;;;;;;;;;;;;;;;
2022/09/04 13:21:14;;;;;;;;;;;;;;;;;;;;;
2022/09/04 13:24:09;;;;;;;9.65;2.88;;;31.30;98.80;;;;;;5121118;28;20106;-79
2022/09/04 13:27:16;;;;;;;;;;;;;;;;;;;;;
2022/09/04 13:30:42;;;;;;;;;;;;;;;;;;;;;
2022/09/04 13:37:38;;;;;;;;;;;;;;;;;;;;;
2022/09/04 13:41:03;;;;;;;;;;;;;;;;;;;;;
2022/09/04 13:44:54;;;;;;;6.72;1.83;;;31.40;96.80;;;;;;5092201;28;20103;-78
2022/09/04 13:47:53;;;;;;;9.73;2.28;;;31.40;97.10;;;;;;5034083;28;20056;-78
2022/09/04 13:51:05;;;;;;;;;;;;;;;;;;;;;
2022/09/04 13:53:58;;;;;;;7.45;2.08;;;31.00;97.10;;;;;;5106010;28;20119;-78
2022/09/04 13:57:02;;;;;;;9.65;2.13;;;30.90;97.30;;;;;;5119413;28;20103;-77
2022/09/04 13:59:36;;;;;;;7.35;2.30;;;31.10;97.80;;;;;;5120271;28;20031;-78
2022/09/04 14:02:27;;;;;;;6.95;2.22;;;31.30;98.00;;;;;;5102943;28;20019;-77
2022/09/04 14:05:03;;;;;;;;;;;31.40;97.40;;;;;;5110616;28;20061;-79
2022/09/04 14:08:07;;;;;;;7.47;1.92;;;31.40;97.20;;;;;;5120201;28;19907;-78
2022/09/04 14:14:40;;;;;;;12.55;2.20;;;31.80;97.20;;;;;;5107862;28;20035;-79
2022/09/04 14:17:48;;;;;;;6.05;2.00;;;32.00;96.40;;;;;;5115872;28;20020;-78
2022/09/04 14:20:31;;;;;;;;;;;;;;;;;;;;;
2022/09/04 14:24:03;;;;;;;;;;;;;;;;;;;;;
2022/09/04 14:27:03;;;;;;;7.80;2.85;;;31.30;96.80;;;;;;5114148;28;20081;-78
2022/09/04 14:30:11;;;;;;;;;;;;;;;;;;;;;
2022/09/04 14:32:59;;;;;;;9.98;2.33;;;31.00;97.70;;;;;;5111458;28;20106;-76
2022/09/04 14:38:53;;;;;;;;;;;;;;;;;;;;;
2022/09/04 14:42:04;;;;;;;7.90;2.10;;;31.90;96.30;;;;;;5119842;28;20102;-80
2022/09/04 14:44:44;;;;;;;;;;;;;;;;;;;;;
2022/09/04 14:50:46;;;;;;;9.23;2.83;;;31.90;96.30;;;;;;5111945;27;20051;-81
2022/09/04 14:53:54;;;;;;;;;;;;;;;;;;;;;
2022/09/04 14:56:53;;;;;;;;;;;;;;;;;;;;;
2022/09/04 15:03:40;;;;;;;6.70;1.73;;;32.60;94.00;;;;;;5055468;28;20029;-82
2022/09/04 15:10:43;;;;;;;14.90;2.70;;;32.20;94.20;;;;;;5084310;28;20028;-80
2022/09/04 15:13:30;;;;;;;11.60;2.15;;;32.70;93.40;;;;;;5072374;28;20023;-82
2022/09/04 15:19:58;;;;;;;6.75;2.17;;;32.00;94.50;;;;;;5062222;28;20027;-81
2022/09/04 15:43:38;;;;;;;9.13;2.03;;;34.80;90.80;;;;;;5037385;28;20037;-80
2022/09/04 15:46:56;;;;;;;6.75;2.00;;;34.40;91.10;;;;;;5066669;28;20021;-80
2022/09/04 15:54:03;;;;;;;;;;;;;;;;;;;;;
2022/09/04 15:57:05;;;;;;;7.13;2.08;;;32.20;95.30;;;;;;5089403;28;20130;-80
2022/09/04 16:06:46;;;;;;;5.43;1.95;;;32.70;94.40;;;;;;5109630;28;20082;-80
2022/09/04 16:09:53;;;;;;;12.63;3.20;;;32.00;95.60;;;;;;5117149;28;20034;-80
2022/09/04 16:16:35;;;;;;;;;;;;;;;;;;;;;
2022/09/04 16:19:23;;;;;;;;;;;;;;;;;;;;;
2022/09/04 16:25:38;;;;;;;;;;;;;;;;;;;;;
2022/09/04 16:28:39;;;;;;;10.30;2.28;;;28.80;99.90;;;;;;5058784;28;20038;-80
2022/09/04 16:32:44;;;;;;;;;;;;;;;;;;;;;
2022/09/04 16:39:27;;;;;;;;;;;;;;;;;;;;;
2022/09/04 16:42:47;;;;;;;9.88;3.08;;;28.50;99.90;;;;;;5032787;28;20089;-79
2022/09/04 16:45:57;;;;;;;;;;;;;;;;;;;;;
2022/09/04 16:49:32;;;;;;;;;;;;;;;;;;;;;
2022/09/04 16:56:27;;;;;;;;;;;;;;;;;;;;;
2022/09/04 16:59:47;;;;;;;14.75;3.45;;;27.90;99.90;;;;;;5095913;28;20482;-79
2022/09/04 17:02:49;;;;;;;9.57;2.67;;;27.80;99.90;;;;;;5037273;28;20559;-80
2022/09/04 17:09:43;;;;;;;12.07;2.55;;;27.50;99.90;;;;;;5050471;28;20050;-79
2022/09/04 17:15:59;;;;;;;;;;;;;;;;;;;;;
2022/09/04 17:18:39;;;;;;;;;;;;;;;;;;;;;
2022/09/04 17:24:57;;;;;;;19.45;5.28;;;27.10;99.90;;;;;;5111655;28;20145;-80
2022/09/04 17:28:14;;;;;;;;;;;;;;;;;;;;;
2022/09/04 17:31:05;;;;;;;15.52;3.45;;;26.90;99.90;;;;;;5031031;28;20605;-78
2022/09/04 17:34:13;;;;;;;13.18;3.97;;;26.80;99.90;;;;;;5115382;28;20027;-80
2022/09/04 17:37:08;;;;;;;12.88;3.40;;;26.70;99.90;;;;;;5115954;28;20055;-79
2022/09/04 17:40:11;;;;;;;12.15;3.55;;;26.50;99.90;;;;;;5119050;28;20506;-80
2022/09/04 17:43:03;;;;;;;15.00;4.38;;;26.50;99.90;;;;;;5115264;28;20024;-79
2022/09/04 17:45:52;;;;;;;23.27;3.75;;;26.40;99.90;;;;;;5115382;28;20031;-78
2022/09/04 17:49:13;;;;;;;15.77;4.53;;;26.30;99.90;;;;;;5105442;28;20035;-80
2022/09/04 17:52:05;;;;;;;;;;;;;;;;;;;;;
2022/09/04 17:58:44;;;;;;;;;;;;;;;;;;;;;